sensor_id;sensor_type;location;lat;lon;timestamp;P1;durP1;ratioP1;P2;durP2;ratioP2
76582;SDS011;65462;52.148;7.940;2023-05-18T00:01:36;5.77;;;1.20;;
76582;SDS011;65462;52.148;7.940;2023-05-18T00:04:05;3.13;;;1.37;;
76582;SDS011;65462;52.148;7.940;2023-05-18T00:06:32;7.77;;;1.60;;
76582;SDS011;65462;52.148;7.940;2023-05-18T00:08:57;4.43;;;1.10;;
76582;SDS011;65462;52.148;7.940;2023-05-18T00:11:22;5.73;;;1.50;;
76582;SDS011;65462;52.148;7.940;2023-05-18T00:13:48;6.40;;;1.60;;
76582;SDS011;65462;52.148;7.940;2023-05-18T00:16:13;4.27;;;1.20;;
76582;SDS011;65462;52.148;7.940;2023-05-18T00:18:39;5.30;;;1.80;;
76582;SDS011;65462;52.148;7.940;2023-05-18T00:21:05;4.33;;;1.50;;
76582;SDS011;65462;52.148;7.940;2023-05-18T00:23:30;4.57;;;1.10;;
76582;SDS011;65462;52.148;7.940;2023-05-18T00:26:00;7.40;;;1.33;;
76582;SDS011;65462;52.148;7.940;2023-05-18T00:28:26;5.40;;;1.47;;
76582;SDS011;65462;52.148;7.940;2023-05-18T00:30:52;5.77;;;1.60;;
76582;SDS011;65462;52.148;7.940;2023-05-18T00:33:18;4.43;;;1.83;;
76582;SDS011;65462;52.148;7.940;2023-05-18T00:35:44;6.93;;;1.60;;
76582;SDS011;65462;52.148;7.940;2023-05-18T00:38:09;5.10;;;1.47;;
76582;SDS011;65462;52.148;7.940;2023-05-18T00:40:36;4.83;;;1.20;;
76582;SDS011;65462;52.148;7.940;2023-05-18T00:43:03;6.47;;;1.20;;
76582;SDS011;65462;52.148;7.940;2023-05-18T00:45:28;6.30;;;1.53;;
76582;SDS011;65462;52.148;7.940;2023-05-18T00:47:53;6.50;;;1.50;;
76582;SDS011;65462;52.148;7.940;2023-05-18T00:50:18;3.97;;;1.50;;
76582;SDS011;65462;52.148;7.940;2023-05-18T00:52:44;6.40;;;1.60;;
76582;SDS011;65462;52.148;7.940;2023-05-18T00:55:11;6.90;;;1.60;;
76582;SDS011;65462;52.148;7.940;2023-05-18T00:57:38;6.10;;;1.57;;
76582;SDS011;65462;52.148;7.940;2023-05-18T01:00:07;5.33;;;1.50;;
76582;SDS011;65462;52.148;7.940;2023-05-18T01:02:35;5.70;;;1.40;;
76582;SDS011;65462;52.148;7.940;2023-05-18T01:05:01;3.97;;;1.60;;
76582;SDS011;65462;52.148;7.940;2023-05-18T01:07:27;4.93;;;1.20;;
76582;SDS011;65462;52.148;7.940;2023-05-18T01:09:54;6.07;;;1.70;;
76582;SDS011;65462;52.148;7.940;2023-05-18T01:12:28;4.37;;;1.60;;
76582;SDS011;65462;52.148;7.940;2023-05-18T01:20:21;5.40;;;1.40;;
76582;SDS011;65462;52.148;7.940;2023-05-18T01:23:11;7.27;;;1.50;;
76582;SDS011;65462;52.148;7.940;2023-05-18T01:28:20;5.70;;;1.40;;
76582;SDS011;65462;52.148;7.940;2023-05-18T01:30:51;5.70;;;1.80;;
76582;SDS011;65462;52.148;7.940;2023-05-18T01:33:17;5.93;;;1.30;;
76582;SDS011;65462;52.148;7.940;2023-05-18T01:35:43;7.53;;;1.33;;
76582;SDS011;65462;52.148;7.940;2023-05-18T01:38:25;5.77;;;1.53;;
76582;SDS011;65462;52.148;7.940;2023-05-18T01:40:56;3.90;;;1.73;;
76582;SDS011;65462;52.148;7.940;2023-05-18T01:43:34;6.13;;;1.43;;
76582;SDS011;65462;52.148;7.940;2023-05-18T01:46:07;7.17;;;1.30;;
76582;SDS011;65462;52.148;7.940;2023-05-18T01:48:39;8.27;;;1.80;;
76582;SDS011;65462;52.148;7.940;2023-05-18T01:51:11;6.37;;;1.40;;
76582;SDS011;65462;52.148;7.940;2023-05-18T01:53:42;5.60;;;1.40;;
76582;SDS011;65462;52.148;7.940;2023-05-18T01:56:10;4.37;;;1.27;;
76582;SDS011;65462;52.148;7.940;2023-05-18T01:58:37;8.43;;;1.70;;
76582;SDS011;65462;52.148;7.940;2023-05-18T02:01:03;5.60;;;1.60;;
76582;SDS011;65462;52.148;7.940;2023-05-18T02:03:30;4.13;;;1.47;;
76582;SDS011;65462;52.148;7.940;2023-05-18T02:05:57;4.20;;;1.57;;
76582;SDS011;65462;52.148;7.940;2023-05-18T02:08:22;5.63;;;1.70;;
76582;SDS011;65462;52.148;7.940;2023-05-18T02:10:47;4.10;;;1.27;;
76582;SDS011;65462;52.148;7.940;2023-05-18T02:13:13;4.17;;;1.60;;
76582;SDS011;65462;52.148;7.940;2023-05-18T02:15:38;8.97;;;1.97;;
76582;SDS011;65462;52.148;7.940;2023-05-18T02:18:03;7.60;;;1.40;;
76582;SDS011;65462;52.148;7.940;2023-05-18T02:20:29;6.10;;;1.60;;
76582;SDS011;65462;52.148;7.940;2023-05-18T02:22:57;7.63;;;1.60;;
76582;SDS011;65462;52.148;7.940;2023-05-18T02:25:23;8.13;;;1.80;;
76582;SDS011;65462;52.148;7.940;2023-05-18T02:27:48;5.93;;;1.50;;
76582;SDS011;65462;52.148;7.940;2023-05-18T02:30:13;8.47;;;1.57;;
76582;SDS011;65462;52.148;7.940;2023-05-18T02:32:39;5.87;;;1.80;;
76582;SDS011;65462;52.148;7.940;2023-05-18T02:35:06;6.63;;;1.70;;
76582;SDS011;65462;52.148;7.940;2023-05-18T02:37:32;7.87;;;1.50;;
76582;SDS011;65462;52.148;7.940;2023-05-18T02:40:10;5.18;;;1.73;;
76582;SDS011;65462;52.148;7.940;2023-05-18T02:42:36;5.63;;;1.50;;
76582;SDS011;65462;52.148;7.940;2023-05-18T02:45:02;6.00;;;1.60;;
76582;SDS011;65462;52.148;7.940;2023-05-18T02:47:27;8.90;;;2.10;;
76582;SDS011;65462;52.148;7.940;2023-05-18T02:49:53;4.87;;;1.50;;
76582;SDS011;65462;52.148;7.940;2023-05-18T02:52:18;6.77;;;1.80;;
76582;SDS011;65462;52.148;7.940;2023-05-18T02:54:43;4.93;;;1.40;;
76582;SDS011;65462;52.148;7.940;2023-05-18T02:57:09;5.37;;;1.80;;
76582;SDS011;65462;52.148;7.940;2023-05-18T02:59:35;7.73;;;1.90;;
76582;SDS011;65462;52.148;7.940;2023-05-18T03:02:01;7.47;;;2.00;;
76582;SDS011;65462;52.148;7.940;2023-05-18T03:04:26;9.20;;;2.13;;
76582;SDS011;65462;52.148;7.940;2023-05-18T03:06:52;7.17;;;1.60;;
76582;SDS011;65462;52.148;7.940;2023-05-18T03:09:17;4.90;;;1.60;;
76582;SDS011;65462;52.148;7.940;2023-05-18T03:11:43;8.77;;;2.03;;
76582;SDS011;65462;52.148;7.940;2023-05-18T03:14:08;7.43;;;2.00;;
76582;SDS011;65462;52.148;7.940;2023-05-18T03:16:34;7.70;;;1.73;;
76582;SDS011;65462;52.148;7.940;2023-05-18T03:19:02;4.20;;;1.87;;
76582;SDS011;65462;52.148;7.940;2023-05-18T03:21:27;6.80;;;2.80;;
76582;SDS011;65462;52.148;7.940;2023-05-18T03:23:57;7.20;;;1.57;;
76582;SDS011;65462;52.148;7.940;2023-05-18T03:26:26;6.50;;;2.00;;
76582;SDS011;65462;52.148;7.940;2023-05-18T03:28:54;6.40;;;1.87;;
76582;SDS011;65462;52.148;7.940;2023-05-18T03:31:20;7.60;;;2.03;;
76582;SDS011;65462;52.148;7.940;2023-05-18T03:33:45;6.73;;;2.57;;
76582;SDS011;65462;52.148;7.940;2023-05-18T03:36:11;7.50;;;2.17;;
76582;SDS011;65462;52.148;7.940;2023-05-18T03:38:36;8.03;;;2.47;;
76582;SDS011;65462;52.148;7.940;2023-05-18T03:41:02;6.50;;;2.20;;
76582;SDS011;65462;52.148;7.940;2023-05-18T03:43:27;6.63;;;2.37;;
76582;SDS011;65462;52.148;7.940;2023-05-18T03:45:56;7.40;;;2.33;;
76582;SDS011;65462;52.148;7.940;2023-05-18T03:48:22;8.10;;;2.43;;
76582;SDS011;65462;52.148;7.940;2023-05-18T03:50:47;10.20;;;2.67;;
76582;SDS011;65462;52.148;7.940;2023-05-18T03:53:13;6.00;;;2.30;;
76582;SDS011;65462;52.148;7.940;2023-05-18T03:55:38;6.80;;;2.20;;
76582;SDS011;65462;52.148;7.940;2023-05-18T03:58:03;6.73;;;2.47;;
76582;SDS011;65462;52.148;7.940;2023-05-18T04:00:29;7.00;;;2.20;;
76582;SDS011;65462;52.148;7.940;2023-05-18T04:02:54;6.30;;;2.23;;
76582;SDS011;65462;52.148;7.940;2023-05-18T04:05:20;10.10;;;2.57;;
76582;SDS011;65462;52.148;7.940;2023-05-18T04:07:46;9.30;;;2.57;;
76582;SDS011;65462;52.148;7.940;2023-05-18T04:10:11;8.87;;;2.00;;
76582;SDS011;65462;52.148;7.940;2023-05-18T04:12:37;5.50;;;1.93;;
76582;SDS011;65462;52.148;7.940;2023-05-18T04:15:03;7.33;;;2.23;;
76582;SDS011;65462;52.148;7.940;2023-05-18T04:17:29;8.33;;;2.17;;
76582;SDS011;65462;52.148;7.940;2023-05-18T04:19:54;4.50;;;2.10;;
76582;SDS011;65462;52.148;7.940;2023-05-18T04:22:19;4.50;;;2.00;;
76582;SDS011;65462;52.148;7.940;2023-05-18T04:24:46;5.83;;;2.20;;
76582;SDS011;65462;52.148;7.940;2023-05-18T04:27:11;8.20;;;2.73;;
76582;SDS011;65462;52.148;7.940;2023-05-18T04:29:37;5.93;;;2.47;;
76582;SDS011;65462;52.148;7.940;2023-05-18T04:32:04;7.23;;;2.63;;
76582;SDS011;65462;52.148;7.940;2023-05-18T04:34:34;6.97;;;2.70;;
76582;SDS011;65462;52.148;7.940;2023-05-18T04:37:01;7.30;;;2.70;;
76582;SDS011;65462;52.148;7.940;2023-05-18T04:39:29;8.53;;;2.57;;
76582;SDS011;65462;52.148;7.940;2023-05-18T04:41:55;6.53;;;2.37;;
76582;SDS011;65462;52.148;7.940;2023-05-18T04:44:23;11.10;;;2.43;;
76582;SDS011;65462;52.148;7.940;2023-05-18T04:46:50;5.70;;;2.13;;
76582;SDS011;65462;52.148;7.940;2023-05-18T04:49:16;7.43;;;2.53;;
76582;SDS011;65462;52.148;7.940;2023-05-18T04:51:45;8.30;;;2.30;;
76582;SDS011;65462;52.148;7.940;2023-05-18T04:54:13;7.93;;;2.40;;
76582;SDS011;65462;52.148;7.940;2023-05-18T04:56:40;4.87;;;2.27;;
76582;SDS011;65462;52.148;7.940;2023-05-18T04:59:05;5.37;;;2.13;;
76582;SDS011;65462;52.148;7.940;2023-05-18T05:01:30;6.30;;;2.20;;
76582;SDS011;65462;52.148;7.940;2023-05-18T05:03:55;9.23;;;2.20;;
76582;SDS011;65462;52.148;7.940;2023-05-18T05:06:22;6.30;;;1.97;;
76582;SDS011;65462;52.148;7.940;2023-05-18T05:08:47;6.63;;;2.60;;
76582;SDS011;65462;52.148;7.940;2023-05-18T05:11:12;7.10;;;2.17;;
76582;SDS011;65462;52.148;7.940;2023-05-18T05:13:38;9.70;;;2.30;;
76582;SDS011;65462;52.148;7.940;2023-05-18T05:16:03;4.97;;;1.90;;
76582;SDS011;65462;52.148;7.940;2023-05-18T05:18:29;10.40;;;2.10;;
76582;SDS011;65462;52.148;7.940;2023-05-18T05:20:54;5.17;;;1.87;;
76582;SDS011;65462;52.148;7.940;2023-05-18T05:23:20;7.23;;;2.00;;
76582;SDS011;65462;52.148;7.940;2023-05-18T05:25:45;6.97;;;1.93;;
76582;SDS011;65462;52.148;7.940;2023-05-18T05:28:10;6.13;;;1.73;;
76582;SDS011;65462;52.148;7.940;2023-05-18T05:30:35;5.00;;;2.03;;
76582;SDS011;65462;52.148;7.940;2023-05-18T05:33:01;9.27;;;1.90;;
76582;SDS011;65462;52.148;7.940;2023-05-18T05:35:26;10.07;;;2.40;;
76582;SDS011;65462;52.148;7.940;2023-05-18T05:37:51;8.33;;;1.80;;
76582;SDS011;65462;52.148;7.940;2023-05-18T05:40:16;8.90;;;1.87;;
76582;SDS011;65462;52.148;7.940;2023-05-18T05:42:42;5.37;;;1.67;;
76582;SDS011;65462;52.148;7.940;2023-05-18T05:45:08;7.10;;;2.00;;
76582;SDS011;65462;52.148;7.940;2023-05-18T05:47:33;5.73;;;1.90;;
76582;SDS011;65462;52.148;7.940;2023-05-18T05:49:59;5.20;;;1.57;;
76582;SDS011;65462;52.148;7.940;2023-05-18T05:52:24;5.27;;;1.60;;
76582;SDS011;65462;52.148;7.940;2023-05-18T05:54:52;6.83;;;1.77;;
76582;SDS011;65462;52.148;7.940;2023-05-18T05:57:18;7.57;;;1.77;;
76582;SDS011;65462;52.148;7.940;2023-05-18T05:59:43;3.50;;;1.57;;
76582;SDS011;65462;52.148;7.940;2023-05-18T06:02:08;4.03;;;1.23;;
76582;SDS011;65462;52.148;7.940;2023-05-18T06:04:33;6.50;;;1.57;;
76582;SDS011;65462;52.148;7.940;2023-05-18T06:06:59;3.97;;;1.67;;
76582;SDS011;65462;52.148;7.940;2023-05-18T06:09:24;4.80;;;1.83;;
76582;SDS011;65462;52.148;7.940;2023-05-18T06:11:50;6.93;;;1.73;;
76582;SDS011;65462;52.148;7.940;2023-05-18T06:14:16;8.57;;;1.97;;
76582;SDS011;65462;52.148;7.940;2023-05-18T06:16:42;4.37;;;1.30;;
76582;SDS011;65462;52.148;7.940;2023-05-18T06:19:07;4.33;;;1.50;;
76582;SDS011;65462;52.148;7.940;2023-05-18T06:21:32;4.37;;;1.57;;
76582;SDS011;65462;52.148;7.940;2023-05-18T06:23:58;5.17;;;1.33;;
76582;SDS011;65462;52.148;7.940;2023-05-18T06:26:25;4.93;;;1.20;;
76582;SDS011;65462;52.148;7.940;2023-05-18T06:28:50;6.20;;;1.57;;
76582;SDS011;65462;52.148;7.940;2023-05-18T06:31:15;4.83;;;1.60;;
76582;SDS011;65462;52.148;7.940;2023-05-18T06:33:42;7.00;;;1.73;;
76582;SDS011;65462;52.148;7.940;2023-05-18T06:36:08;5.53;;;1.37;;
76582;SDS011;65462;52.148;7.940;2023-05-18T06:38:33;7.80;;;1.60;;
76582;SDS011;65462;52.148;7.940;2023-05-18T06:40:58;6.20;;;1.50;;
76582;SDS011;65462;52.148;7.940;2023-05-18T06:43:24;4.97;;;1.52;;
76582;SDS011;65462;52.148;7.940;2023-05-18T06:45:53;6.43;;;1.40;;
76582;SDS011;65462;52.148;7.940;2023-05-18T06:48:18;5.77;;;1.57;;
76582;SDS011;65462;52.148;7.940;2023-05-18T06:50:44;5.85;;;1.30;;
76582;SDS011;65462;52.148;7.940;2023-05-18T06:53:09;4.18;;;1.00;;
76582;SDS011;65462;52.148;7.940;2023-05-18T06:55:35;6.78;;;1.55;;
76582;SDS011;65462;52.148;7.940;2023-05-18T06:58:01;8.73;;;1.50;;
76582;SDS011;65462;52.148;7.940;2023-05-18T07:00:26;6.03;;;1.85;;
76582;SDS011;65462;52.148;7.940;2023-05-18T07:02:52;10.38;;;1.42;;
76582;SDS011;65462;52.148;7.940;2023-05-18T07:05:17;5.53;;;1.13;;
76582;SDS011;65462;52.148;7.940;2023-05-18T07:07:43;6.70;;;2.00;;
76582;SDS011;65462;52.148;7.940;2023-05-18T07:10:08;3.45;;;1.30;;
76582;SDS011;65462;52.148;7.940;2023-05-18T07:12:34;11.77;;;1.40;;
76582;SDS011;65462;52.148;7.940;2023-05-18T07:14:59;6.00;;;1.45;;
76582;SDS011;65462;52.148;7.940;2023-05-18T07:17:24;6.97;;;1.30;;
76582;SDS011;65462;52.148;7.940;2023-05-18T07:19:50;8.07;;;1.30;;
76582;SDS011;65462;52.148;7.940;2023-05-18T07:22:15;6.40;;;1.20;;
76582;SDS011;65462;52.148;7.940;2023-05-18T07:24:40;4.18;;;1.10;;
76582;SDS011;65462;52.148;7.940;2023-05-18T07:27:05;4.57;;;1.25;;
76582;SDS011;65462;52.148;7.940;2023-05-18T07:29:32;4.68;;;1.25;;
76582;SDS011;65462;52.148;7.940;2023-05-18T07:31:58;5.97;;;1.52;;
76582;SDS011;65462;52.148;7.940;2023-05-18T07:34:23;5.18;;;1.33;;
76582;SDS011;65462;52.148;7.940;2023-05-18T07:36:50;6.28;;;1.20;;
76582;SDS011;65462;52.148;7.940;2023-05-18T07:39:16;4.43;;;1.30;;
76582;SDS011;65462;52.148;7.940;2023-05-18T07:41:42;3.92;;;1.20;;
76582;SDS011;65462;52.148;7.940;2023-05-18T07:44:12;6.38;;;1.40;;
76582;SDS011;65462;52.148;7.940;2023-05-18T07:46:38;4.72;;;1.10;;
76582;SDS011;65462;52.148;7.940;2023-05-18T07:49:04;4.35;;;1.17;;
76582;SDS011;65462;52.148;7.940;2023-05-18T07:51:29;5.47;;;1.20;;
76582;SDS011;65462;52.148;7.940;2023-05-18T07:53:55;5.63;;;1.23;;
76582;SDS011;65462;52.148;7.940;2023-05-18T07:56:21;8.18;;;1.60;;
76582;SDS011;65462;52.148;7.940;2023-05-18T07:58:48;6.13;;;1.40;;
76582;SDS011;65462;52.148;7.940;2023-05-18T08:01:13;4.70;;;1.65;;
76582;SDS011;65462;52.148;7.940;2023-05-18T08:03:38;6.15;;;2.13;;
76582;SDS011;65462;52.148;7.940;2023-05-18T08:06:03;8.23;;;1.63;;
76582;SDS011;65462;52.148;7.940;2023-05-18T08:08:29;4.95;;;1.50;;
76582;SDS011;65462;52.148;7.940;2023-05-18T08:10:55;3.35;;;1.25;;
76582;SDS011;65462;52.148;7.940;2023-05-18T08:13:20;6.60;;;1.55;;
76582;SDS011;65462;52.148;7.940;2023-05-18T08:15:46;4.50;;;1.10;;
76582;SDS011;65462;52.148;7.940;2023-05-18T08:18:11;5.43;;;1.30;;
76582;SDS011;65462;52.148;7.940;2023-05-18T08:20:36;8.27;;;1.40;;
76582;SDS011;65462;52.148;7.940;2023-05-18T08:23:02;3.85;;;1.20;;
76582;SDS011;65462;52.148;7.940;2023-05-18T08:25:28;4.22;;;1.52;;
76582;SDS011;65462;52.148;7.940;2023-05-18T08:27:53;5.30;;;1.33;;
76582;SDS011;65462;52.148;7.940;2023-05-18T08:30:18;4.18;;;1.33;;
76582;SDS011;65462;52.148;7.940;2023-05-18T08:32:48;6.35;;;1.30;;
76582;SDS011;65462;52.148;7.940;2023-05-18T08:35:13;5.43;;;1.40;;
76582;SDS011;65462;52.148;7.940;2023-05-18T08:37:39;5.95;;;1.33;;
76582;SDS011;65462;52.148;7.940;2023-05-18T08:40:04;4.53;;;1.20;;
76582;SDS011;65462;52.148;7.940;2023-05-18T08:47:52;5.97;;;1.27;;
76582;SDS011;65462;52.148;7.940;2023-05-18T08:50:20;6.20;;;1.40;;
76582;SDS011;65462;52.148;7.940;2023-05-18T08:52:46;4.32;;;1.40;;
76582;SDS011;65462;52.148;7.940;2023-05-18T08:55:12;3.22;;;1.17;;
76582;SDS011;65462;52.148;7.940;2023-05-18T08:57:41;5.45;;;1.55;;
76582;SDS011;65462;52.148;7.940;2023-05-18T09:00:08;1.73;;;0.85;;
76582;SDS011;65462;52.148;7.940;2023-05-18T09:02:36;3.78;;;1.17;;
76582;SDS011;65462;52.148;7.940;2023-05-18T09:05:02;6.32;;;1.50;;
76582;SDS011;65462;52.148;7.940;2023-05-18T09:07:28;5.78;;;1.50;;
76582;SDS011;65462;52.148;7.940;2023-05-18T09:09:53;8.00;;;1.50;;
76582;SDS011;65462;52.148;7.940;2023-05-18T09:12:20;5.63;;;1.40;;
76582;SDS011;65462;52.148;7.940;2023-05-18T09:14:49;4.38;;;1.50;;
76582;SDS011;65462;52.148;7.940;2023-05-18T09:17:15;5.25;;;1.58;;
76582;SDS011;65462;52.148;7.940;2023-05-18T09:19:40;6.45;;;1.45;;
76582;SDS011;65462;52.148;7.940;2023-05-18T09:22:06;7.50;;;1.58;;
76582;SDS011;65462;52.148;7.940;2023-05-18T09:24:32;5.72;;;1.27;;
76582;SDS011;65462;52.148;7.940;2023-05-18T09:26:58;4.10;;;1.55;;
76582;SDS011;65462;52.148;7.940;2023-05-18T09:29:23;6.32;;;1.75;;
76582;SDS011;65462;52.148;7.940;2023-05-18T09:31:49;5.15;;;1.30;;
76582;SDS011;65462;52.148;7.940;2023-05-18T09:34:14;4.90;;;1.45;;
76582;SDS011;65462;52.148;7.940;2023-05-18T09:36:40;5.95;;;1.67;;
76582;SDS011;65462;52.148;7.940;2023-05-18T09:39:10;6.57;;;1.58;;
76582;SDS011;65462;52.148;7.940;2023-05-18T09:41:40;4.60;;;1.83;;
76582;SDS011;65462;52.148;7.940;2023-05-18T09:44:05;3.95;;;1.80;;
76582;SDS011;65462;52.148;7.940;2023-05-18T09:46:36;6.53;;;1.48;;
76582;SDS011;65462;52.148;7.940;2023-05-18T09:49:03;3.13;;;1.42;;
76582;SDS011;65462;52.148;7.940;2023-05-18T09:51:29;7.45;;;1.50;;
76582;SDS011;65462;52.148;7.940;2023-05-18T09:53:58;5.25;;;1.58;;
76582;SDS011;65462;52.148;7.940;2023-05-18T09:56:24;5.40;;;1.70;;
76582;SDS011;65462;52.148;7.940;2023-05-18T09:58:50;3.72;;;1.40;;
76582;SDS011;65462;52.148;7.940;2023-05-18T10:01:16;5.55;;;1.55;;
76582;SDS011;65462;52.148;7.940;2023-05-18T10:03:42;4.10;;;1.55;;
76582;SDS011;65462;52.148;7.940;2023-05-18T10:06:10;4.60;;;1.35;;
76582;SDS011;65462;52.148;7.940;2023-05-18T10:08:41;5.82;;;1.40;;
76582;SDS011;65462;52.148;7.940;2023-05-18T10:11:07;7.70;;;2.20;;
76582;SDS011;65462;52.148;7.940;2023-05-18T10:13:33;5.95;;;1.75;;
76582;SDS011;65462;52.148;7.940;2023-05-18T10:16:00;3.20;;;1.40;;
76582;SDS011;65462;52.148;7.940;2023-05-18T10:18:27;4.70;;;1.60;;
76582;SDS011;65462;52.148;7.940;2023-05-18T10:20:59;4.15;;;1.50;;
76582;SDS011;65462;52.148;7.940;2023-05-18T10:23:26;4.75;;;1.48;;
76582;SDS011;65462;52.148;7.940;2023-05-18T10:25:54;6.10;;;1.55;;
76582;SDS011;65462;52.148;7.940;2023-05-18T10:30:50;4.65;;;1.95;;
76582;SDS011;65462;52.148;7.940;2023-05-18T10:33:16;5.70;;;1.38;;
76582;SDS011;65462;52.148;7.940;2023-05-18T10:35:42;6.45;;;1.67;;
76582;SDS011;65462;52.148;7.940;2023-05-18T10:38:09;7.32;;;1.50;;
76582;SDS011;65462;52.148;7.940;2023-05-18T10:40:35;4.07;;;1.27;;
76582;SDS011;65462;52.148;7.940;2023-05-18T10:43:02;5.38;;;1.52;;
76582;SDS011;65462;52.148;7.940;2023-05-18T10:45:28;4.78;;;1.42;;
76582;SDS011;65462;52.148;7.940;2023-05-18T10:47:58;6.30;;;1.70;;
76582;SDS011;65462;52.148;7.940;2023-05-18T10:50:24;5.55;;;1.38;;
76582;SDS011;65462;52.148;7.940;2023-05-18T10:52:50;4.85;;;1.42;;
76582;SDS011;65462;52.148;7.940;2023-05-18T10:55:17;5.65;;;1.55;;
76582;SDS011;65462;52.148;7.940;2023-05-18T10:57:47;4.13;;;1.50;;
76582;SDS011;65462;52.148;7.940;2023-05-18T11:00:16;4.78;;;1.52;;
76582;SDS011;65462;52.148;7.940;2023-05-18T11:02:43;5.65;;;1.75;;
76582;SDS011;65462;52.148;7.940;2023-05-18T11:05:09;3.80;;;1.33;;
76582;SDS011;65462;52.148;7.940;2023-05-18T11:07:35;6.13;;;1.73;;
76582;SDS011;65462;52.148;7.940;2023-05-18T11:10:02;6.38;;;1.73;;
76582;SDS011;65462;52.148;7.940;2023-05-18T11:12:31;3.00;;;1.35;;
76582;SDS011;65462;52.148;7.940;2023-05-18T11:14:57;5.47;;;1.63;;
76582;SDS011;65462;52.148;7.940;2023-05-18T11:17:24;4.05;;;1.73;;
76582;SDS011;65462;52.148;7.940;2023-05-18T11:22:50;7.85;;;1.92;;
76582;SDS011;65462;52.148;7.940;2023-05-18T11:25:39;6.00;;;1.27;;
76582;SDS011;65462;52.148;7.940;2023-05-18T11:28:10;9.27;;;2.03;;
76582;SDS011;65462;52.148;7.940;2023-05-18T11:33:10;3.80;;;1.38;;
76582;SDS011;65462;52.148;7.940;2023-05-18T11:35:53;3.72;;;1.20;;
76582;SDS011;65462;52.148;7.940;2023-05-18T11:38:18;5.18;;;1.50;;
76582;SDS011;65462;52.148;7.940;2023-05-18T11:40:47;4.97;;;1.90;;
76582;SDS011;65462;52.148;7.940;2023-05-18T11:43:20;5.35;;;1.70;;
76582;SDS011;65462;52.148;7.940;2023-05-18T11:45:50;6.47;;;1.40;;
76582;SDS011;65462;52.148;7.940;2023-05-18T11:48:19;3.65;;;1.15;;
76582;SDS011;65462;52.148;7.940;2023-05-18T11:50:48;5.00;;;1.40;;
76582;SDS011;65462;52.148;7.940;2023-05-18T11:53:14;5.97;;;1.85;;
76582;SDS011;65462;52.148;7.940;2023-05-18T11:55:41;4.63;;;1.40;;
76582;SDS011;65462;52.148;7.940;2023-05-18T11:58:06;6.45;;;1.48;;
76582;SDS011;65462;52.148;7.940;2023-05-18T12:00:32;5.82;;;1.60;;
76582;SDS011;65462;52.148;7.940;2023-05-18T12:02:59;4.85;;;1.77;;
76582;SDS011;65462;52.148;7.940;2023-05-18T12:05:29;3.90;;;1.70;;
76582;SDS011;65462;52.148;7.940;2023-05-18T12:07:55;5.40;;;1.55;;
76582;SDS011;65462;52.148;7.940;2023-05-18T12:10:22;4.75;;;2.10;;
76582;SDS011;65462;52.148;7.940;2023-05-18T12:12:48;4.18;;;1.33;;
76582;SDS011;65462;52.148;7.940;2023-05-18T12:15:19;5.03;;;1.48;;
76582;SDS011;65462;52.148;7.940;2023-05-18T12:17:46;5.05;;;1.80;;
76582;SDS011;65462;52.148;7.940;2023-05-18T12:22:49;7.63;;;1.42;;
76582;SDS011;65462;52.148;7.940;2023-05-18T12:25:20;3.05;;;1.27;;
76582;SDS011;65462;52.148;7.940;2023-05-18T12:27:47;5.43;;;1.58;;
76582;SDS011;65462;52.148;7.940;2023-05-18T12:30:17;5.43;;;1.45;;
76582;SDS011;65462;52.148;7.940;2023-05-18T12:32:51;5.88;;;1.45;;
76582;SDS011;65462;52.148;7.940;2023-05-18T12:35:22;5.05;;;1.60;;
76582;SDS011;65462;52.148;7.940;2023-05-18T12:37:48;5.90;;;1.35;;
76582;SDS011;65462;52.148;7.940;2023-05-18T12:40:15;3.03;;;1.15;;
76582;SDS011;65462;52.148;7.940;2023-05-18T12:42:54;7.03;;;2.05;;
76582;SDS011;65462;52.148;7.940;2023-05-18T12:45:25;3.92;;;1.50;;
76582;SDS011;65462;52.148;7.940;2023-05-18T12:47:52;3.50;;;1.42;;
76582;SDS011;65462;52.148;7.940;2023-05-18T12:50:19;2.45;;;1.13;;
76582;SDS011;65462;52.148;7.940;2023-05-18T12:52:46;3.42;;;1.27;;
76582;SDS011;65462;52.148;7.940;2023-05-18T12:55:19;3.58;;;1.40;;
76582;SDS011;65462;52.148;7.940;2023-05-18T12:58:05;3.75;;;1.52;;
76582;SDS011;65462;52.148;7.940;2023-05-18T13:00:41;6.43;;;1.33;;
76582;SDS011;65462;52.148;7.940;2023-05-18T13:03:08;5.68;;;1.65;;
76582;SDS011;65462;52.148;7.940;2023-05-18T13:05:35;3.75;;;1.30;;
76582;SDS011;65462;52.148;7.940;2023-05-18T13:08:00;8.13;;;1.63;;
76582;SDS011;65462;52.148;7.940;2023-05-18T13:10:28;3.17;;;1.20;;
76582;SDS011;65462;52.148;7.940;2023-05-18T13:12:56;4.60;;;1.50;;
76582;SDS011;65462;52.148;7.940;2023-05-18T13:15:25;3.78;;;1.50;;
76582;SDS011;65462;52.148;7.940;2023-05-18T13:17:54;6.40;;;1.65;;
76582;SDS011;65462;52.148;7.940;2023-05-18T13:20:21;5.70;;;1.73;;
76582;SDS011;65462;52.148;7.940;2023-05-18T13:22:48;5.57;;;1.73;;
76582;SDS011;65462;52.148;7.940;2023-05-18T13:25:14;5.03;;;1.30;;
76582;SDS011;65462;52.148;7.940;2023-05-18T13:27:40;4.70;;;1.50;;
76582;SDS011;65462;52.148;7.940;2023-05-18T13:30:05;4.00;;;1.10;;
76582;SDS011;65462;52.148;7.940;2023-05-18T13:32:32;4.15;;;1.30;;
76582;SDS011;65462;52.148;7.940;2023-05-18T13:34:57;3.05;;;1.42;;
76582;SDS011;65462;52.148;7.940;2023-05-18T13:37:23;5.32;;;1.45;;
76582;SDS011;65462;52.148;7.940;2023-05-18T13:39:48;5.20;;;1.08;;
76582;SDS011;65462;52.148;7.940;2023-05-18T13:42:14;6.07;;;2.45;;
76582;SDS011;65462;52.148;7.940;2023-05-18T13:44:39;14.70;;;6.35;;
76582;SDS011;65462;52.148;7.940;2023-05-18T13:47:04;27.60;;;13.15;;
76582;SDS011;65462;52.148;7.940;2023-05-18T13:49:30;23.83;;;12.90;;
76582;SDS011;65462;52.148;7.940;2023-05-18T13:51:55;17.73;;;9.68;;
76582;SDS011;65462;52.148;7.940;2023-05-18T13:54:23;13.88;;;6.07;;
76582;SDS011;65462;52.148;7.940;2023-05-18T13:56:48;11.35;;;5.50;;
76582;SDS011;65462;52.148;7.940;2023-05-18T13:59:13;8.45;;;3.60;;
76582;SDS011;65462;52.148;7.940;2023-05-18T14:01:43;9.60;;;4.88;;
76582;SDS011;65462;52.148;7.940;2023-05-18T14:04:10;11.90;;;7.47;;
76582;SDS011;65462;52.148;7.940;2023-05-18T14:06:35;14.55;;;7.43;;
76582;SDS011;65462;52.148;7.940;2023-05-18T14:09:01;9.43;;;5.35;;
76582;SDS011;65462;52.148;7.940;2023-05-18T14:11:26;9.38;;;5.15;;
76582;SDS011;65462;52.148;7.940;2023-05-18T14:13:51;8.00;;;4.97;;
76582;SDS011;65462;52.148;7.940;2023-05-18T14:16:17;7.78;;;5.47;;
76582;SDS011;65462;52.148;7.940;2023-05-18T14:18:42;9.35;;;5.80;;
76582;SDS011;65462;52.148;7.940;2023-05-18T14:21:07;8.82;;;6.80;;
76582;SDS011;65462;52.148;7.940;2023-05-18T14:23:33;11.57;;;5.20;;
76582;SDS011;65462;52.148;7.940;2023-05-18T14:25:58;8.93;;;5.28;;
76582;SDS011;65462;52.148;7.940;2023-05-18T14:28:23;6.03;;;3.88;;
76582;SDS011;65462;52.148;7.940;2023-05-18T14:30:48;7.45;;;3.30;;
76582;SDS011;65462;52.148;7.940;2023-05-18T14:33:14;7.05;;;4.47;;
76582;SDS011;65462;52.148;7.940;2023-05-18T14:35:39;6.13;;;3.60;;
76582;SDS011;65462;52.148;7.940;2023-05-18T14:38:04;6.47;;;3.53;;
76582;SDS011;65462;52.148;7.940;2023-05-18T14:40:30;5.13;;;2.42;;
76582;SDS011;65462;52.148;7.940;2023-05-18T14:42:55;6.50;;;2.70;;
76582;SDS011;65462;52.148;7.940;2023-05-18T14:45:21;5.93;;;2.13;;
76582;SDS011;65462;52.148;7.940;2023-05-18T14:47:46;3.95;;;1.38;;
76582;SDS011;65462;52.148;7.940;2023-05-18T14:50:11;4.18;;;1.67;;
76582;SDS011;65462;52.148;7.940;2023-05-18T14:52:37;6.28;;;1.75;;
76582;SDS011;65462;52.148;7.940;2023-05-18T14:55:02;3.30;;;1.38;;
76582;SDS011;65462;52.148;7.940;2023-05-18T14:57:28;5.65;;;1.83;;
76582;SDS011;65462;52.148;7.940;2023-05-18T14:59:53;6.43;;;1.67;;
76582;SDS011;65462;52.148;7.940;2023-05-18T15:02:18;4.15;;;1.55;;
76582;SDS011;65462;52.148;7.940;2023-05-18T15:04:44;4.68;;;1.40;;
76582;SDS011;65462;52.148;7.940;2023-05-18T15:07:10;5.38;;;1.48;;
76582;SDS011;65462;52.148;7.940;2023-05-18T15:09:35;7.25;;;1.40;;